createdAt,value
2017-06-26T00:01:02.047Z,21.00
2017-06-26T00:03:29.515Z,20.89
2017-06-26T00:05:57.045Z,20.85
2017-06-26T00:08:24.488Z,20.70
2017-06-26T00:10:51.943Z,20.76
2017-06-26T00:13:19.390Z,20.82
2017-06-26T00:15:49.563Z,20.63
2017-06-26T00:18:16.995Z,20.62
2017-06-26T00:20:44.426Z,20.63
2017-06-26T00:23:11.829Z,20.65
2017-06-26T00:25:39.289Z,20.69
2017-06-26T00:28:06.716Z,20.71
2017-06-26T00:30:34.136Z,20.65
2017-06-26T00:33:02.364Z,20.68
2017-06-26T00:35:29.789Z,20.68
2017-06-26T00:37:57.243Z,20.68
2017-06-26T00:40:24.691Z,20.72
2017-06-26T00:42:52.246Z,20.74
2017-06-26T00:45:19.931Z,20.76
2017-06-26T00:47:47.420Z,20.82
2017-06-26T00:50:14.858Z,20.80
2017-06-26T00:52:42.736Z,20.77
2017-06-26T00:55:10.195Z,20.75
2017-06-26T00:57:37.599Z,20.67
2017-06-26T01:00:05.012Z,20.63
2017-06-26T01:02:32.466Z,20.67
2017-06-26T01:05:00.448Z,20.72
2017-06-26T01:07:27.907Z,20.71
2017-06-26T01:09:56.101Z,20.76
2017-06-26T01:12:23.499Z,20.61
2017-06-26T01:14:50.990Z,20.47
2017-06-26T01:17:18.407Z,20.41
2017-06-26T01:19:45.808Z,20.36
2017-06-26T01:22:13.275Z,20.26
2017-06-26T01:24:40.689Z,20.33
2017-06-26T01:27:08.096Z,20.36
2017-06-26T01:29:35.632Z,20.40
2017-06-26T01:32:04.209Z,20.43
2017-06-26T01:34:31.617Z,20.33
2017-06-26T01:36:59.066Z,20.31
2017-06-26T01:39:26.612Z,20.32
2017-06-26T01:41:54.087Z,20.33
2017-06-26T01:44:21.621Z,20.23
2017-06-26T01:46:49.035Z,20.18
2017-06-26T01:49:16.436Z,20.10
2017-06-26T01:51:43.909Z,19.99
2017-06-26T01:54:11.323Z,19.99
2017-06-26T01:56:38.832Z,19.92
2017-06-26T01:59:06.255Z,19.89
2017-06-26T02:01:34.670Z,19.89
2017-06-26T02:04:02.113Z,19.98
2017-06-26T02:06:29.568Z,20.05
2017-06-26T02:08:56.968Z,20.04
2017-06-26T02:11:24.378Z,20.08
2017-06-26T02:13:51.822Z,20.13
2017-06-26T02:16:19.211Z,20.16
2017-06-26T02:18:46.654Z,20.14
2017-06-26T02:21:14.108Z,20.20
2017-06-26T02:23:42.554Z,20.20
2017-06-26T02:26:10.024Z,20.10
2017-06-26T02:28:37.499Z,19.87
2017-06-26T02:31:04.927Z,19.67
2017-06-26T02:33:32.335Z,19.38
2017-06-26T02:35:59.775Z,19.40
2017-06-26T02:38:27.207Z,19.28
2017-06-26T02:40:54.758Z,19.21
2017-06-26T02:43:22.337Z,19.30
2017-06-26T02:45:49.793Z,19.32
2017-06-26T02:48:21.152Z,19.32
2017-06-26T02:50:48.571Z,19.24
2017-06-26T02:53:16.030Z,19.20
2017-06-26T02:55:43.431Z,19.22
2017-06-26T02:58:10.840Z,19.20
2017-06-26T03:00:38.397Z,19.18
2017-06-26T03:03:05.795Z,19.15
2017-06-26T03:05:33.219Z,19.02
2017-06-26T03:08:00.662Z,19.05
2017-06-26T03:10:28.061Z,19.01
2017-06-26T03:12:55.571Z,18.91
2017-06-26T03:15:23.120Z,18.86
2017-06-26T03:17:50.567Z,18.94
2017-06-26T03:20:17.971Z,18.94
2017-06-26T03:22:45.449Z,18.99
2017-06-26T03:25:12.888Z,19.05
2017-06-26T03:27:40.293Z,19.03
2017-06-26T03:30:07.732Z,19.08
2017-06-26T03:32:35.240Z,19.08
2017-06-26T03:35:03.154Z,19.14
2017-06-26T03:37:30.608Z,19.18
2017-06-26T03:40:01.040Z,19.22
2017-06-26T03:42:28.462Z,19.21
2017-06-26T03:44:56.644Z,19.18
2017-06-26T03:47:24.091Z,19.17
2017-06-26T03:49:55.391Z,19.17
2017-06-26T03:52:22.792Z,19.20
2017-06-26T03:54:50.331Z,19.24
2017-06-26T03:57:17.736Z,19.27
2017-06-26T03:59:45.673Z,19.32
2017-06-26T04:02:13.175Z,19.33
2017-06-26T04:04:41.516Z,19.35
2017-06-26T04:07:09.015Z,19.44
2017-06-26T04:09:36.428Z,19.50
2017-06-26T04:12:03.876Z,19.54
2017-06-26T04:14:31.367Z,19.54
2017-06-26T04:16:58.777Z,19.46
2017-06-26T04:19:26.268Z,19.36
2017-06-26T04:21:53.680Z,19.35
2017-06-26T04:24:21.139Z,19.37
2017-06-26T04:26:49.667Z,19.37
2017-06-26T04:29:19.071Z,19.42
2017-06-26T04:31:46.495Z,19.50
2017-06-26T04:34:13.954Z,19.59
2017-06-26T04:36:41.387Z,19.63
2017-06-26T04:39:12.524Z,19.69
2017-06-26T04:41:44.348Z,19.76
2017-06-26T04:44:11.802Z,19.86
2017-06-26T04:46:39.224Z,19.93
2017-06-26T04:49:06.683Z,19.99
2017-06-26T04:51:34.118Z,19.91
2017-06-26T04:54:01.583Z,19.99
2017-06-26T04:56:29.059Z,20.06
2017-06-26T04:58:56.467Z,19.97
2017-06-26T05:01:26.577Z,20.00
2017-06-26T05:03:54.030Z,20.02
2017-06-26T05:06:21.570Z,20.03
2017-06-26T05:08:49.039Z,20.09
2017-06-26T05:11:16.554Z,19.94
2017-06-26T05:13:43.977Z,20.03
2017-06-26T05:16:11.438Z,20.08
2017-06-26T05:18:42.840Z,20.19
2017-06-26T05:21:10.244Z,20.36
2017-06-26T05:23:37.740Z,20.35
2017-06-26T05:26:05.173Z,20.42
2017-06-26T05:28:32.620Z,20.42
2017-06-26T05:31:00.052Z,20.49
2017-06-26T05:33:27.452Z,20.50
2017-06-26T05:35:54.932Z,20.54
2017-06-26T05:38:22.470Z,20.46
2017-06-26T05:40:50.019Z,20.56
2017-06-26T05:43:17.468Z,20.58
2017-06-26T05:45:44.884Z,20.77
2017-06-26T05:48:12.319Z,20.87
2017-06-26T05:50:39.803Z,20.91
2017-06-26T05:53:07.258Z,20.97
2017-06-26T05:55:43.604Z,21.16
2017-06-26T05:58:11.039Z,21.27
2017-06-26T06:00:41.387Z,21.39
2017-06-26T06:03:09.816Z,21.31
2017-06-26T06:05:37.263Z,21.34
2017-06-26T06:08:05.709Z,21.45
2017-06-26T06:10:33.137Z,21.54
2017-06-26T06:13:00.588Z,21.51
2017-06-26T06:15:27.994Z,21.57
2017-06-26T06:17:55.421Z,21.61
2017-06-26T06:20:22.848Z,21.72
2017-06-26T06:22:50.309Z,21.87
2017-06-26T06:25:17.913Z,21.85
2017-06-26T06:27:45.568Z,21.87
2017-06-26T06:30:15.003Z,21.95
2017-06-26T06:32:42.623Z,22.17
2017-06-26T06:35:10.060Z,22.17
2017-06-26T06:37:37.733Z,22.39
2017-06-26T06:40:05.137Z,22.63
2017-06-26T06:42:32.570Z,22.82
2017-06-26T06:45:02.407Z,22.95
2017-06-26T06:47:29.897Z,23.00
2017-06-26T06:49:57.287Z,22.94
2017-06-26T06:52:24.715Z,23.02
2017-06-26T06:54:52.180Z,22.97
2017-06-26T06:57:25.399Z,23.01
2017-06-26T06:59:56.677Z,23.06
2017-06-26T07:02:24.127Z,23.22
2017-06-26T07:04:51.544Z,23.19
2017-06-26T07:07:18.959Z,23.22
2017-06-26T07:09:50.399Z,23.08
2017-06-26T07:12:17.798Z,23.23
2017-06-26T07:14:46.838Z,23.57
2017-06-26T07:17:14.248Z,23.62
2017-06-26T07:19:41.904Z,23.72
2017-06-26T07:22:09.343Z,23.63
2017-06-26T07:24:36.767Z,23.62
2017-06-26T07:27:04.215Z,23.63
2017-06-26T07:29:31.764Z,23.83
2017-06-26T07:31:59.172Z,23.98
2017-06-26T07:34:26.607Z,24.12
2017-06-26T07:36:54.071Z,24.18
2017-06-26T07:39:21.496Z,24.34
2017-06-26T07:41:48.949Z,24.15
2017-06-26T07:44:16.987Z,24.25
2017-06-26T07:46:53.319Z,24.55
2017-06-26T07:49:20.765Z,24.86
2017-06-26T07:51:48.187Z,25.02
2017-06-26T07:54:15.651Z,25.09
2017-06-26T07:56:43.068Z,25.25
2017-06-26T07:59:10.489Z,25.05
2017-06-26T08:01:37.952Z,25.12
2017-06-26T08:04:05.384Z,25.30
2017-06-26T08:06:32.863Z,25.55
2017-06-26T08:09:01.252Z,25.43
2017-06-26T08:11:28.695Z,25.28
2017-06-26T08:13:56.106Z,25.46
2017-06-26T08:16:23.628Z,25.71
2017-06-26T08:18:51.424Z,25.96
2017-06-26T08:21:18.882Z,26.14
2017-06-26T08:23:46.325Z,26.29
2017-06-26T08:26:13.819Z,26.39
2017-06-26T08:28:41.301Z,26.53
2017-06-26T08:31:08.753Z,26.71
2017-06-26T08:33:36.236Z,26.68
2017-06-26T08:36:03.704Z,26.60
2017-06-26T08:38:31.123Z,26.75
2017-06-26T08:40:58.933Z,26.89
2017-06-26T08:43:26.353Z,26.80
2017-06-26T08:45:55.657Z,26.72
2017-06-26T08:48:23.129Z,26.77
2017-06-26T08:50:50.650Z,26.53
2017-06-26T08:53:18.203Z,26.33
2017-06-26T08:55:45.871Z,26.49
2017-06-26T08:58:15.779Z,26.63
2017-06-26T09:00:43.320Z,26.78
2017-06-26T09:03:10.992Z,26.91
2017-06-26T09:05:38.407Z,27.03
2017-06-26T09:08:07.024Z,26.99
2017-06-26T09:10:34.792Z,27.16
2017-06-26T09:13:03.285Z,27.34
2017-06-26T09:15:30.772Z,27.47
2017-06-26T09:18:00.538Z,27.48
2017-06-26T09:20:32.895Z,27.43
2017-06-26T09:23:00.336Z,27.40
2017-06-26T09:25:28.057Z,27.40
2017-06-26T09:27:55.570Z,27.25
2017-06-26T09:30:23.035Z,27.46
2017-06-26T09:32:52.299Z,27.48
2017-06-26T09:35:19.715Z,27.23
2017-06-26T09:37:47.299Z,27.62
2017-06-26T09:40:14.724Z,27.90
2017-06-26T09:42:42.255Z,28.11
2017-06-26T09:45:10.066Z,27.71
2017-06-26T09:47:38.099Z,27.88
2017-06-26T09:50:05.558Z,27.91
2017-06-26T09:52:33.553Z,28.03
2017-06-26T09:55:00.972Z,27.89
2017-06-26T09:57:28.480Z,28.04
2017-06-26T09:59:55.959Z,27.87
2017-06-26T10:02:23.477Z,28.06
2017-06-26T10:04:51.037Z,28.17
2017-06-26T10:07:18.610Z,28.16
2017-06-26T10:09:46.048Z,28.44
2017-06-26T10:12:13.658Z,28.74
2017-06-26T10:14:41.145Z,29.00
2017-06-26T10:17:08.546Z,29.10
2017-06-26T10:19:36.009Z,29.20
2017-06-26T10:22:03.595Z,29.43
2017-06-26T10:24:31.090Z,29.56
2017-06-26T10:26:58.568Z,29.55
2017-06-26T10:29:26.057Z,29.58
2017-06-26T10:31:53.550Z,29.65
2017-06-26T10:34:21.042Z,29.80
2017-06-26T10:36:48.472Z,29.92
2017-06-26T10:39:15.952Z,29.57
2017-06-26T10:41:43.394Z,29.64
2017-06-26T10:44:10.805Z,29.71
2017-06-26T10:46:38.353Z,29.96
2017-06-26T10:49:05.957Z,30.08
2017-06-26T10:51:33.444Z,30.07
2017-06-26T10:54:01.006Z,30.24
2017-06-26T10:56:28.456Z,30.37
2017-06-26T10:58:58.805Z,30.53
2017-06-26T11:01:31.576Z,30.42
2017-06-26T11:03:59.063Z,30.47
2017-06-26T11:06:26.546Z,30.49
2017-06-26T11:08:54.834Z,30.27
2017-06-26T11:11:22.379Z,30.00
2017-06-26T11:13:49.840Z,30.21
2017-06-26T11:16:18.020Z,30.19
2017-06-26T11:18:45.467Z,30.39
2017-06-26T11:21:12.920Z,30.60
2017-06-26T11:23:40.418Z,30.69
2017-06-26T11:26:07.917Z,30.69
2017-06-26T11:28:35.456Z,30.71
2017-06-26T11:31:02.876Z,30.80
2017-06-26T11:33:30.479Z,30.71
2017-06-26T11:35:58.007Z,30.87
2017-06-26T11:38:25.467Z,30.89
2017-06-26T11:40:52.954Z,30.72
2017-06-26T11:43:20.647Z,31.04
2017-06-26T11:45:48.100Z,30.85
2017-06-26T11:48:15.671Z,31.13
2017-06-26T11:50:43.104Z,31.27
2017-06-26T11:53:10.707Z,31.04
2017-06-26T11:55:38.198Z,30.85
2017-06-26T11:58:05.830Z,31.02
2017-06-26T12:00:33.282Z,31.27
2017-06-26T12:03:00.770Z,31.40
2017-06-26T12:05:28.227Z,31.59
2017-06-26T12:07:55.726Z,31.60
2017-06-26T12:10:23.239Z,31.51
2017-06-26T12:12:50.772Z,31.44
2017-06-26T12:15:18.256Z,31.09
2017-06-26T12:17:45.773Z,31.10
2017-06-26T12:20:13.314Z,31.33
2017-06-26T12:22:40.833Z,31.66
2017-06-26T12:25:08.250Z,31.67
2017-06-26T12:27:35.724Z,31.63
2017-06-26T12:30:03.408Z,31.46
2017-06-26T12:32:32.575Z,31.72
2017-06-26T12:35:03.508Z,31.55
2017-06-26T12:37:32.565Z,31.16
2017-06-26T12:40:01.314Z,31.44
2017-06-26T12:42:30.384Z,31.72
2017-06-26T12:44:57.855Z,31.42
2017-06-26T12:47:26.880Z,31.75
2017-06-26T12:49:55.831Z,32.74
2017-06-26T12:52:23.881Z,33.45
2017-06-26T12:54:51.436Z,34.91
2017-06-26T12:57:19.043Z,36.14
2017-06-26T12:59:46.770Z,37.81
2017-06-26T13:02:14.377Z,38.07
2017-06-26T13:04:42.839Z,38.21
2017-06-26T13:07:10.368Z,39.63
2017-06-26T13:09:37.930Z,40.18
2017-06-26T13:12:05.488Z,40.06
2017-06-26T13:14:33.370Z,40.68
2017-06-26T13:17:01.025Z,41.71
2017-06-26T13:19:28.483Z,41.33
2017-06-26T13:21:55.912Z,40.50
2017-06-26T13:24:23.392Z,40.87
2017-06-26T13:26:51.531Z,40.46
2017-06-26T13:29:18.978Z,41.50
2017-06-26T13:31:46.549Z,42.35
2017-06-26T13:34:15.652Z,41.96
2017-06-26T13:36:43.161Z,40.71
2017-06-26T13:39:10.635Z,40.72
2017-06-26T13:41:38.192Z,40.77
2017-06-26T13:44:05.712Z,40.58
2017-06-26T13:46:33.288Z,39.33
2017-06-26T13:49:02.793Z,40.11
2017-06-26T13:51:32.986Z,39.70
2017-06-26T13:54:00.398Z,40.49
2017-06-26T13:56:27.873Z,40.78
2017-06-26T13:58:55.346Z,40.95
2017-06-26T14:01:22.791Z,39.64
2017-06-26T14:03:50.289Z,39.53
2017-06-26T14:06:17.729Z,39.30
2017-06-26T14:08:45.152Z,39.47
2017-06-26T14:11:12.612Z,38.59
2017-06-26T14:13:40.036Z,39.62
2017-06-26T14:16:07.479Z,40.55
2017-06-26T14:18:35.030Z,40.10
2017-06-26T14:21:02.476Z,39.25
2017-06-26T14:23:30.452Z,37.70
2017-06-26T14:25:57.924Z,36.20
2017-06-26T14:28:25.435Z,36.47
2017-06-26T14:30:52.852Z,36.95
2017-06-26T14:33:20.319Z,36.48
2017-06-26T14:35:47.777Z,36.74
2017-06-26T14:38:15.181Z,36.58
2017-06-26T14:40:42.609Z,36.32
2017-06-26T14:43:10.037Z,35.82
2017-06-26T14:45:37.475Z,36.70
2017-06-26T14:48:04.957Z,36.08
2017-06-26T14:50:32.364Z,35.61
2017-06-26T14:52:59.823Z,35.63
2017-06-26T14:55:27.248Z,35.95
2017-06-26T14:57:54.652Z,36.54
2017-06-26T15:00:22.122Z,36.67
2017-06-26T15:02:49.600Z,36.52
2017-06-26T15:05:17.015Z,36.28
2017-06-26T15:07:44.657Z,36.47
2017-06-26T15:10:12.200Z,36.00
2017-06-26T15:12:39.883Z,36.10
2017-06-26T15:15:07.346Z,35.96
2017-06-26T15:17:34.812Z,35.43
2017-06-26T15:20:02.282Z,35.50
2017-06-26T15:22:29.695Z,35.96
2017-06-26T15:24:57.122Z,35.57
2017-06-26T15:27:24.572Z,35.80
2017-06-26T15:29:52.063Z,35.68
2017-06-26T15:32:19.567Z,35.62
2017-06-26T15:34:46.976Z,35.67
2017-06-26T15:37:14.409Z,34.97
2017-06-26T15:39:41.853Z,34.42
2017-06-26T15:42:09.284Z,34.48
2017-06-26T15:44:37.474Z,34.19
2017-06-26T15:47:04.956Z,34.12
2017-06-26T15:49:32.408Z,34.39
2017-06-26T15:51:59.813Z,34.05
2017-06-26T15:54:27.246Z,34.22
2017-06-26T15:56:56.507Z,33.84
2017-06-26T16:04:43.519Z,33.48
2017-06-26T16:07:10.978Z,32.90
2017-06-26T16:09:38.391Z,33.03
2017-06-26T16:12:05.868Z,33.08
2017-06-26T16:14:33.353Z,33.26
2017-06-26T16:17:00.763Z,33.22
2017-06-26T16:19:28.184Z,33.07
2017-06-26T16:21:55.640Z,32.95
2017-06-26T16:24:23.085Z,33.08
2017-06-26T16:26:50.518Z,32.78
2017-06-26T16:29:17.992Z,32.72
2017-06-26T16:31:45.413Z,32.86
2017-06-26T16:34:12.856Z,32.49
2017-06-26T16:36:40.330Z,32.60
2017-06-26T16:39:07.801Z,32.58
2017-06-26T16:41:35.207Z,32.33
2017-06-26T16:44:02.642Z,32.24
2017-06-26T16:46:30.080Z,32.57
2017-06-26T16:48:57.504Z,32.67
2017-06-26T16:51:24.905Z,32.52
2017-06-26T16:53:52.348Z,32.39
2017-06-26T16:56:19.764Z,32.51
2017-06-26T16:58:47.236Z,32.39
2017-06-26T17:01:14.692Z,32.13
2017-06-26T17:03:42.100Z,32.32
2017-06-26T17:06:09.570Z,32.40
2017-06-26T17:08:37.040Z,32.37
2017-06-26T17:11:06.060Z,32.22
2017-06-26T17:13:33.497Z,31.83
2017-06-26T17:16:01.646Z,32.13
2017-06-26T17:18:30.929Z,32.12
2017-06-26T17:20:58.828Z,31.94
2017-06-26T17:23:27.729Z,31.91
2017-06-26T17:25:55.633Z,31.88
2017-06-26T17:28:23.063Z,31.85
2017-06-26T17:30:50.885Z,31.69
2017-06-26T17:33:18.302Z,31.64
2017-06-26T17:35:46.345Z,31.43
2017-06-26T17:38:13.794Z,31.48
2017-06-26T17:40:41.311Z,31.39
2017-06-26T17:43:10.061Z,31.26
2017-06-26T17:45:37.507Z,31.19
2017-06-26T17:48:05.908Z,31.26
2017-06-26T17:50:33.383Z,31.31
2017-06-26T17:53:00.837Z,31.16
2017-06-26T17:55:28.322Z,31.11
2017-06-26T17:57:55.790Z,31.18
2017-06-26T18:00:23.998Z,31.10
2017-06-26T18:02:51.446Z,30.92
2017-06-26T18:05:18.896Z,30.83
2017-06-26T18:07:46.336Z,30.79
2017-06-26T18:10:15.693Z,30.79
2017-06-26T18:12:43.173Z,30.80
2017-06-26T18:15:10.588Z,30.58
2017-06-26T18:17:38.015Z,30.44
2017-06-26T18:20:05.449Z,30.50
2017-06-26T18:22:32.890Z,30.58
2017-06-26T18:25:00.404Z,30.24
2017-06-26T18:27:27.874Z,30.19
2017-06-26T18:29:55.702Z,30.24
2017-06-26T18:32:23.096Z,30.14
2017-06-26T18:34:50.800Z,30.09
2017-06-26T18:37:18.279Z,29.79
2017-06-26T18:39:45.692Z,29.90
2017-06-26T18:42:13.124Z,29.97
2017-06-26T18:44:42.577Z,29.83
2017-06-26T18:47:11.730Z,29.85
2017-06-26T18:49:40.739Z,29.82
2017-06-26T18:52:10.241Z,29.70
2017-06-26T18:54:37.738Z,29.80
2017-06-26T18:57:05.163Z,29.84
2017-06-26T18:59:32.656Z,29.95
2017-06-26T19:02:00.329Z,29.94
2017-06-26T19:04:27.828Z,29.92
2017-06-26T19:06:55.247Z,29.82
2017-06-26T19:09:22.697Z,29.84
2017-06-26T19:11:52.042Z,29.81
2017-06-26T19:14:20.689Z,29.60
2017-06-26T19:16:48.196Z,29.56
2017-06-26T19:19:15.624Z,29.44
2017-06-26T19:21:43.070Z,29.27
2017-06-26T19:24:10.520Z,29.34
2017-06-26T19:26:37.935Z,29.29
2017-06-26T19:29:05.401Z,29.33
2017-06-26T19:31:32.880Z,28.96
2017-06-26T19:34:00.481Z,28.99
2017-06-26T19:36:28.102Z,28.79
2017-06-26T19:38:55.639Z,28.85
2017-06-26T19:41:23.196Z,28.87
2017-06-26T19:43:51.113Z,28.80
2017-06-26T19:46:18.537Z,28.69
2017-06-26T19:48:45.968Z,28.59
2017-06-26T19:51:13.450Z,28.54
2017-06-26T19:53:41.630Z,28.45
2017-06-26T19:56:09.101Z,28.40
2017-06-26T19:58:36.522Z,28.42
2017-06-26T20:01:04.001Z,28.31
2017-06-26T20:03:31.505Z,28.23
2017-06-26T20:05:59.007Z,28.20
2017-06-26T20:08:26.467Z,28.23
2017-06-26T20:10:53.924Z,28.23
2017-06-26T20:13:21.367Z,28.19
2017-06-26T20:15:48.798Z,28.10
2017-06-26T20:18:16.201Z,28.09
2017-06-26T20:20:43.679Z,28.09
2017-06-26T20:23:11.124Z,28.06
2017-06-26T20:25:38.581Z,28.02
2017-06-26T20:28:06.045Z,27.97
2017-06-26T20:30:33.513Z,27.94
2017-06-26T20:33:01.002Z,27.88
2017-06-26T20:35:28.500Z,27.81
2017-06-26T20:37:55.939Z,27.79
2017-06-26T20:40:25.030Z,27.73
2017-06-26T20:42:52.476Z,27.73
2017-06-26T20:45:19.892Z,27.70
2017-06-26T20:47:47.344Z,27.69
2017-06-26T20:50:14.765Z,27.68
2017-06-26T20:52:42.203Z,27.62
2017-06-26T20:55:09.640Z,27.56
2017-06-26T20:57:37.107Z,27.58
2017-06-26T21:00:04.544Z,27.61
2017-06-26T21:02:32.022Z,27.59
2017-06-26T21:04:59.484Z,27.66
2017-06-26T21:07:26.902Z,27.69
2017-06-26T21:09:54.365Z,27.70
2017-06-26T21:12:21.796Z,27.67
2017-06-26T21:14:49.259Z,27.57
2017-06-26T21:17:16.707Z,27.41
2017-06-26T21:19:44.141Z,27.50
2017-06-26T21:22:11.629Z,27.54
2017-06-26T21:24:39.056Z,27.63
2017-06-26T21:27:06.505Z,27.66
2017-06-26T21:29:33.895Z,27.64
2017-06-26T21:32:01.380Z,27.61
2017-06-26T21:34:28.808Z,27.53
2017-06-26T21:36:56.217Z,27.58
2017-06-26T21:39:23.703Z,27.48
2017-06-26T21:41:51.674Z,27.53
2017-06-26T21:44:19.105Z,27.55
2017-06-26T21:46:46.525Z,27.54
2017-06-26T21:49:13.940Z,27.44
2017-06-26T21:51:41.365Z,27.47
2017-06-26T21:54:08.833Z,27.50
2017-06-26T21:56:36.282Z,27.50
2017-06-26T21:59:03.714Z,27.41
2017-06-26T22:01:31.164Z,27.29
2017-06-26T22:03:58.601Z,27.24
2017-06-26T22:06:26.011Z,27.20
2017-06-26T22:08:53.559Z,27.32
2017-06-26T22:11:20.960Z,27.06
2017-06-26T22:13:48.364Z,26.76
2017-06-26T22:16:15.825Z,26.47
2017-06-26T22:18:43.243Z,26.03
2017-06-26T22:21:10.708Z,26.04
2017-06-26T22:23:38.117Z,25.75
2017-06-26T22:26:05.541Z,25.38
2017-06-26T22:28:33.004Z,25.44
2017-06-26T22:31:00.409Z,25.25
2017-06-26T22:33:27.863Z,23.94
